createdAt,value
2022-11-12T00:01:22.969Z,61.36
2022-11-12T00:04:09.419Z,59.38
2022-11-12T00:06:55.272Z,59.45
2022-11-12T00:09:41.039Z,60.53
2022-11-12T00:12:27.164Z,60.67
2022-11-12T00:15:13.520Z,61.25
2022-11-12T00:17:59.279Z,60.90
2022-11-12T00:20:45.184Z,60.86
2022-11-12T00:23:30.841Z,60.98
2022-11-12T00:26:16.701Z,60.90
2022-11-12T00:29:02.800Z,60.76
2022-11-12T00:31:48.861Z,60.74
2022-11-12T00:34:35.331Z,60.87
2022-11-12T00:37:23.150Z,61.02
2022-11-12T00:40:09.393Z,60.91
2022-11-12T00:42:55.563Z,60.94
2022-11-12T00:45:43.314Z,61.14
2022-11-12T00:48:29.444Z,60.88
2022-11-12T00:51:15.095Z,61.00
2022-11-12T00:54:01.081Z,60.97
2022-11-12T00:56:47.973Z,61.05
2022-11-12T00:59:34.054Z,60.95
2022-11-12T01:02:20.773Z,61.28
2022-11-12T01:05:07.084Z,61.05
2022-11-12T01:07:56.018Z,60.92
2022-11-12T01:10:42.314Z,60.97
2022-11-12T01:14:11.131Z,60.90
2022-11-12T01:16:57.057Z,60.86
2022-11-12T01:19:42.912Z,61.01
2022-11-12T01:22:29.064Z,60.94
2022-11-12T01:25:15.031Z,60.96
2022-11-12T01:28:01.012Z,60.71
2022-11-12T01:30:47.102Z,61.24
2022-11-12T01:33:32.943Z,60.98
2022-11-12T01:36:19.208Z,60.81
2022-11-12T01:39:07.105Z,61.05
2022-11-12T01:41:52.660Z,61.18
2022-11-12T01:44:42.217Z,60.94
2022-11-12T01:47:34.739Z,61.13
2022-11-12T01:50:27.945Z,61.08
2022-11-12T01:53:14.645Z,60.98
2022-11-12T01:56:03.577Z,61.10
2022-11-12T01:58:55.667Z,60.98
2022-11-12T02:01:41.418Z,61.10
2022-11-12T02:04:28.076Z,61.03
2022-11-12T02:07:15.404Z,60.93
2022-11-12T02:10:02.800Z,60.92
2022-11-12T02:13:10.908Z,61.23
2022-11-12T02:15:56.543Z,60.99
2022-11-12T02:18:42.576Z,61.04
2022-11-12T02:21:29.031Z,61.16
2022-11-12T02:24:14.899Z,60.92
2022-11-12T02:27:01.238Z,60.95
2022-11-12T02:29:46.832Z,61.14
2022-11-12T02:32:32.899Z,60.70
2022-11-12T02:35:18.944Z,61.01
2022-11-12T02:38:06.256Z,60.88
2022-11-12T02:40:52.064Z,60.98
2022-11-12T02:43:38.142Z,60.68
2022-11-12T02:46:24.357Z,60.89
2022-11-12T02:49:10.199Z,61.03
2022-11-12T02:51:55.992Z,60.92
2022-11-12T02:54:42.044Z,60.70
2022-11-12T02:57:29.843Z,60.85
2022-11-12T03:00:15.838Z,60.81
2022-11-12T03:03:01.825Z,60.82
2022-11-12T03:05:56.701Z,60.94
2022-11-12T03:08:42.624Z,60.76
2022-11-12T03:11:28.420Z,60.98
2022-11-12T03:14:14.667Z,60.82
2022-11-12T03:17:00.560Z,60.66
2022-11-12T03:19:46.412Z,60.84
2022-11-12T03:22:32.432Z,60.82
2022-11-12T03:25:18.529Z,60.77
2022-11-12T03:28:11.602Z,60.73
2022-11-12T03:30:59.698Z,60.80
2022-11-12T03:33:46.004Z,60.71
2022-11-12T03:36:32.310Z,60.81
2022-11-12T03:39:18.370Z,60.55
2022-11-12T03:42:04.614Z,60.83
2022-11-12T03:44:50.595Z,60.67
2022-11-12T03:47:36.401Z,60.84
2022-11-12T03:50:25.153Z,60.70
2022-11-12T03:53:11.800Z,60.85
2022-11-12T03:55:57.422Z,60.77
2022-11-12T03:58:43.270Z,60.46
2022-11-12T04:01:29.310Z,60.92
2022-11-12T04:04:15.146Z,60.78
2022-11-12T04:07:19.775Z,60.89
2022-11-12T04:10:05.746Z,60.90
2022-11-12T04:13:10.116Z,60.90
2022-11-12T04:16:20.997Z,60.83
2022-11-12T04:19:27.866Z,61.12
2022-11-12T04:22:13.678Z,60.91
2022-11-12T04:25:18.158Z,61.07
2022-11-12T04:28:03.938Z,60.97
2022-11-12T04:30:49.633Z,60.84
2022-11-12T04:33:35.583Z,60.74
2022-11-12T04:36:21.597Z,61.00
2022-11-12T04:39:07.570Z,61.02
2022-11-12T04:42:12.238Z,61.01
2022-11-12T04:45:07.005Z,60.92
2022-11-12T04:47:52.871Z,60.81
2022-11-12T04:50:39.678Z,60.76
2022-11-12T04:53:26.231Z,60.82
2022-11-12T04:56:12.228Z,60.81
2022-11-12T04:58:58.057Z,60.74
2022-11-12T05:01:44.133Z,60.75
2022-11-12T05:04:30.024Z,60.53
2022-11-12T05:07:16.956Z,60.63
2022-11-12T05:10:02.832Z,60.44
2022-11-12T05:12:48.392Z,60.56
2022-11-12T05:15:34.076Z,60.50
2022-11-12T05:18:19.873Z,60.36
2022-11-12T05:21:26.081Z,60.33
2022-11-12T05:24:27.704Z,60.48
2022-11-12T05:27:20.995Z,60.58
2022-11-12T05:30:07.974Z,60.76
2022-11-12T05:32:53.702Z,60.73
2022-11-12T05:35:39.635Z,60.86
2022-11-12T05:38:25.924Z,60.71
2022-11-12T05:41:15.965Z,60.78
2022-11-12T05:44:04.997Z,60.82
2022-11-12T05:46:50.776Z,60.91
2022-11-12T05:49:36.926Z,60.63
2022-11-12T05:52:22.798Z,61.16
2022-11-12T05:55:09.068Z,60.63
2022-11-12T05:57:54.829Z,60.80
2022-11-12T06:00:41.736Z,60.60
2022-11-12T06:03:28.357Z,60.73
2022-11-12T06:06:14.628Z,60.60
2022-11-12T06:09:00.320Z,60.52
2022-11-12T06:11:46.499Z,60.55
2022-11-12T06:14:32.337Z,60.47
2022-11-12T06:17:18.306Z,60.60
2022-11-12T06:20:05.105Z,60.41
2022-11-12T06:22:51.309Z,60.40
2022-11-12T06:25:37.186Z,60.42
2022-11-12T06:28:23.244Z,60.36
2022-11-12T06:31:09.023Z,60.24
2022-11-12T06:33:54.922Z,60.38
2022-11-12T06:36:40.781Z,60.13
2022-11-12T06:39:26.609Z,60.46
2022-11-12T06:42:12.590Z,60.48
2022-11-12T06:44:58.498Z,60.40
2022-11-12T06:47:44.487Z,60.25
2022-11-12T06:50:30.699Z,60.17
2022-11-12T06:53:16.698Z,60.02
2022-11-12T06:56:04.653Z,60.14
2022-11-12T06:58:50.587Z,60.04
2022-11-12T07:01:36.520Z,60.02
2022-11-12T07:04:24.336Z,59.99
2022-11-12T07:07:11.031Z,59.99
2022-11-12T07:10:00.338Z,59.89
2022-11-12T07:12:52.054Z,60.08
2022-11-12T07:15:39.258Z,60.22
2022-11-12T07:18:25.651Z,59.79
2022-11-12T07:21:13.536Z,59.94
2022-11-12T07:23:59.267Z,60.23
2022-11-12T07:26:47.728Z,59.99
2022-11-12T07:29:46.919Z,60.00
2022-11-12T07:32:37.315Z,60.06
2022-11-12T07:35:25.854Z,60.17
2022-11-12T07:38:11.602Z,59.89
2022-11-12T07:41:10.419Z,60.00
2022-11-12T07:43:56.513Z,59.96
2022-11-12T07:46:42.477Z,59.83
2022-11-12T07:49:28.405Z,59.79
2022-11-12T07:52:14.316Z,59.80
2022-11-12T07:55:00.148Z,60.10
2022-11-12T07:57:46.227Z,59.92
2022-11-12T08:00:32.291Z,60.07
2022-11-12T08:03:19.122Z,60.11
2022-11-12T08:06:05.455Z,60.05
2022-11-12T08:08:55.179Z,59.96
2022-11-12T08:11:42.283Z,60.07
2022-11-12T08:14:28.040Z,60.01
2022-11-12T08:17:14.056Z,60.07
2022-11-12T08:20:00.017Z,57.71
2022-11-12T08:22:49.227Z,58.95
2022-11-12T08:25:36.534Z,58.79
2022-11-12T08:28:22.356Z,56.94
2022-11-12T08:31:16.638Z,56.21
2022-11-12T08:34:12.229Z,57.69
2022-11-12T08:36:58.457Z,58.87
2022-11-12T08:39:44.274Z,58.83
2022-11-12T08:42:30.215Z,58.75
2022-11-12T08:45:15.931Z,58.63
2022-11-12T08:48:04.681Z,58.52
2022-11-12T08:50:50.472Z,58.30
2022-11-12T08:53:36.516Z,58.43
2022-11-12T08:56:22.517Z,58.55
2022-11-12T08:59:08.512Z,58.31
2022-11-12T09:01:54.459Z,58.58
2022-11-12T09:04:40.401Z,58.44
2022-11-12T09:07:48.943Z,58.43
2022-11-12T09:10:33.307Z,58.31
2022-11-12T09:13:19.547Z,58.44
2022-11-12T09:16:07.511Z,58.40
2022-11-12T09:18:53.184Z,58.14
2022-11-12T09:21:39.140Z,58.37
2022-11-12T09:24:24.995Z,58.38
2022-11-12T09:27:10.884Z,58.57
2022-11-12T09:29:56.933Z,58.57
2022-11-12T09:32:42.846Z,58.35
2022-11-12T09:35:29.477Z,58.41
2022-11-12T09:38:16.058Z,58.39
2022-11-12T09:41:23.858Z,58.43
2022-11-12T09:44:18.389Z,58.27
2022-11-12T09:47:12.695Z,58.39
2022-11-12T09:50:27.108Z,58.32
2022-11-12T09:53:22.016Z,58.42
2022-11-12T09:56:12.379Z,58.35
2022-11-12T09:58:58.198Z,58.31
2022-11-12T10:01:56.106Z,58.21
2022-11-12T10:05:12.322Z,58.23
2022-11-12T10:08:07.127Z,58.46
2022-11-12T10:10:59.138Z,58.22
2022-11-12T10:14:20.450Z,58.29
2022-11-12T10:17:16.514Z,58.34
2022-11-12T10:20:20.717Z,58.66
2022-11-12T10:23:22.913Z,58.49
2022-11-12T10:26:15.069Z,58.22
2022-11-12T10:29:03.836Z,58.28
2022-11-12T10:31:49.377Z,58.32
2022-11-12T10:34:36.008Z,58.54
2022-11-12T10:37:28.669Z,58.40
2022-11-12T10:40:36.807Z,58.25
2022-11-12T10:43:24.740Z,58.24
2022-11-12T10:46:32.685Z,58.69
2022-11-12T10:49:18.549Z,58.25
2022-11-12T10:52:04.845Z,58.30
2022-11-12T10:55:23.354Z,58.08
2022-11-12T10:58:12.449Z,58.41
2022-11-12T11:01:12.337Z,58.56
2022-11-12T11:03:58.575Z,58.21
2022-11-12T11:06:44.966Z,58.33
2022-11-12T11:09:31.283Z,58.22
2022-11-12T11:12:27.535Z,58.42
2022-11-12T11:15:23.900Z,58.40
2022-11-12T11:18:14.268Z,58.33
2022-11-12T11:21:09.690Z,58.64
2022-11-12T11:24:07.620Z,58.39
2022-11-12T11:27:30.658Z,58.44
2022-11-12T11:30:21.334Z,58.57
2022-11-12T11:33:09.976Z,58.52
2022-11-12T11:36:20.970Z,58.46
2022-11-12T11:39:30.646Z,58.55
2022-11-12T11:42:47.826Z,58.55
2022-11-12T11:46:11.541Z,58.46
2022-11-12T11:49:06.318Z,58.44
2022-11-12T11:52:25.572Z,58.42
2022-11-12T11:55:33.581Z,58.64
2022-11-12T11:58:58.250Z,58.55
2022-11-12T12:01:53.089Z,58.58
2022-11-12T12:04:42.465Z,58.47
2022-11-12T12:08:00.929Z,58.67
2022-11-12T12:11:10.527Z,58.52
2022-11-12T12:14:28.751Z,58.65
2022-11-12T12:17:31.763Z,58.57
2022-11-12T12:20:23.884Z,58.50
2022-11-12T12:23:24.614Z,58.41
2022-11-12T12:26:16.308Z,58.61
2022-11-12T12:29:10.677Z,58.56
2022-11-12T12:32:14.115Z,58.46
2022-11-12T12:35:26.958Z,58.62
2022-11-12T12:38:28.605Z,58.54
2022-11-12T12:41:37.489Z,58.61
2022-11-12T12:44:44.183Z,58.65
2022-11-12T12:47:35.800Z,58.58
2022-11-12T12:50:22.967Z,58.40
2022-11-12T12:53:18.468Z,58.53
2022-11-12T12:56:25.571Z,58.49
2022-11-12T12:59:20.786Z,58.71
2022-11-12T13:02:21.020Z,58.47
2022-11-12T13:05:21.915Z,58.34
2022-11-12T13:08:14.356Z,58.64
2022-11-12T13:11:00.570Z,58.53
2022-11-12T13:13:46.532Z,58.47
2022-11-12T13:16:56.839Z,58.63
2022-11-12T13:19:55.052Z,58.67
2022-11-12T13:22:41.012Z,58.72
2022-11-12T13:25:31.839Z,58.53
2022-11-12T13:28:17.600Z,58.42
2022-11-12T13:31:23.676Z,58.61
2022-11-12T13:34:22.905Z,58.67
2022-11-12T13:37:19.919Z,58.36
2022-11-12T13:40:14.410Z,58.70
2022-11-12T13:43:06.117Z,58.63
2022-11-12T13:45:57.608Z,58.60
2022-11-12T13:48:50.783Z,58.41
2022-11-12T13:51:39.802Z,58.64
2022-11-12T13:54:36.525Z,58.58
2022-11-12T13:57:25.262Z,58.91
2022-11-12T14:00:17.433Z,58.63
2022-11-12T14:03:07.996Z,58.78
2022-11-12T14:05:54.554Z,58.59
2022-11-12T14:09:08.797Z,58.76
2022-11-12T14:12:17.621Z,58.60
2022-11-12T14:15:48.503Z,58.57
2022-11-12T14:19:00.489Z,58.71
2022-11-12T14:22:09.276Z,58.58
2022-11-12T14:25:01.674Z,58.54
2022-11-12T14:27:52.208Z,58.75
2022-11-12T14:30:44.775Z,58.59
2022-11-12T14:33:32.937Z,58.64
2022-11-12T14:36:19.628Z,58.53
2022-11-12T14:39:06.957Z,58.77
2022-11-12T14:41:54.527Z,58.63
2022-11-12T14:44:40.201Z,58.81
2022-11-12T14:47:26.962Z,58.82
2022-11-12T14:50:40.240Z,58.60
2022-11-12T14:53:32.851Z,58.68
2022-11-12T14:56:42.560Z,58.61
2022-11-12T14:59:29.021Z,58.72
2022-11-12T15:02:49.834Z,58.67
2022-11-12T15:05:23.761Z,58.71
2022-11-12T15:08:12.977Z,58.62
2022-11-12T15:11:20.298Z,58.73
2022-11-12T15:14:21.821Z,58.66
2022-11-12T15:17:33.039Z,58.54
2022-11-12T15:20:20.134Z,58.64
2022-11-12T15:23:06.672Z,58.64
2022-11-12T15:26:00.589Z,58.70
2022-11-12T15:29:00.300Z,58.81
2022-11-12T15:31:58.578Z,58.46
2022-11-12T15:34:48.275Z,58.72
2022-11-12T15:37:42.463Z,58.64
2022-11-12T15:40:29.264Z,58.53
2022-11-12T15:43:35.165Z,58.82
2022-11-12T15:46:21.776Z,58.47
2022-11-12T15:49:12.817Z,58.84
2022-11-12T15:51:58.448Z,58.55
2022-11-12T15:54:44.464Z,58.72
2022-11-12T15:57:32.169Z,58.61
2022-11-12T16:00:19.870Z,58.69
2022-11-12T16:03:15.769Z,58.86
2022-11-12T16:06:08.364Z,58.79
2022-11-12T16:08:55.193Z,58.85
2022-11-12T16:11:41.185Z,59.06
2022-11-12T16:14:27.430Z,58.88
2022-11-12T16:17:15.924Z,59.12
2022-11-12T16:20:01.730Z,58.96
2022-11-12T16:22:48.760Z,58.80
2022-11-12T16:25:36.933Z,58.93
2022-11-12T16:28:22.830Z,59.11
2022-11-12T16:31:08.258Z,58.82
2022-11-12T16:33:54.468Z,59.09
2022-11-12T16:36:40.229Z,59.06
2022-11-12T16:39:26.457Z,58.83
2022-11-12T16:42:12.652Z,59.20
2022-11-12T16:44:58.648Z,58.92
2022-11-12T16:47:50.974Z,58.99
2022-11-12T16:50:36.848Z,59.02
2022-11-12T16:53:22.759Z,59.66
2022-11-12T16:56:21.783Z,60.05
2022-11-12T16:59:10.418Z,60.39
2022-11-12T17:01:56.078Z,60.53
2022-11-12T17:04:42.103Z,60.58
2022-11-12T17:07:28.230Z,60.56
2022-11-12T17:10:14.308Z,60.66
2022-11-12T17:13:00.438Z,60.82
2022-11-12T17:15:46.281Z,60.90
2022-11-12T17:18:32.162Z,61.00
2022-11-12T17:21:21.568Z,61.25
2022-11-12T17:24:11.156Z,61.29
2022-11-12T17:26:57.552Z,61.46
2022-11-12T17:29:43.358Z,61.15
2022-11-12T17:32:29.233Z,61.38
2022-11-12T17:35:16.167Z,61.19
2022-11-12T17:38:02.296Z,61.31
2022-11-12T17:40:48.081Z,60.77
2022-11-12T17:43:34.900Z,60.65
2022-11-12T17:46:20.819Z,60.69
2022-11-12T17:49:09.580Z,60.34
2022-11-12T17:51:55.242Z,61.19
2022-11-12T17:54:42.519Z,61.51
2022-11-12T17:57:28.534Z,61.52
2022-11-12T18:00:17.726Z,61.43
2022-11-12T18:03:03.905Z,61.17
2022-11-12T18:05:59.849Z,61.44
2022-11-12T18:08:48.311Z,61.34
2022-11-12T18:11:54.653Z,61.42
2022-11-12T18:14:40.742Z,61.69
2022-11-12T18:17:26.489Z,61.46
2022-11-12T18:20:12.786Z,61.60
2022-11-12T18:22:58.911Z,61.56
2022-11-12T18:25:44.827Z,61.19
2022-11-12T18:28:30.963Z,61.04
2022-11-12T18:31:17.516Z,61.13
2022-11-12T18:34:07.010Z,60.76
2022-11-12T18:36:55.720Z,60.74
2022-11-12T18:39:41.616Z,60.89
2022-11-12T18:42:29.091Z,60.67
2022-11-12T18:45:15.142Z,60.85
2022-11-12T18:48:01.412Z,60.63
2022-11-12T18:50:47.263Z,60.64
2022-11-12T18:53:34.015Z,60.52
2022-11-12T18:56:22.014Z,60.58
2022-11-12T18:59:08.693Z,60.61
2022-11-12T19:01:54.335Z,60.64
2022-11-12T19:04:45.240Z,60.49
2022-11-12T19:07:31.737Z,60.46
2022-11-12T19:10:17.798Z,61.04
2022-11-12T19:13:05.149Z,61.02
2022-11-12T19:15:51.027Z,60.58
2022-11-12T19:18:36.920Z,60.25
2022-11-12T19:21:25.794Z,60.10
2022-11-12T19:24:11.802Z,59.93
2022-11-12T19:26:57.919Z,59.74
2022-11-12T19:29:43.748Z,60.69
2022-11-12T19:32:29.801Z,60.47
2022-11-12T19:35:15.802Z,60.82
2022-11-12T19:38:01.730Z,60.95
2022-11-12T19:40:48.173Z,61.40
2022-11-12T19:43:34.705Z,61.09
2022-11-12T19:46:21.071Z,60.93
2022-11-12T19:49:06.952Z,60.95
2022-11-12T19:51:52.535Z,60.84
2022-11-12T19:54:38.458Z,61.04
2022-11-12T19:57:24.192Z,60.69
2022-11-12T20:00:11.120Z,60.90
2022-11-12T20:02:58.672Z,60.73
2022-11-12T20:05:53.060Z,60.62
2022-11-12T20:09:10.116Z,60.74
2022-11-12T20:11:56.542Z,60.78
2022-11-12T20:14:42.510Z,60.63
2022-11-12T20:17:31.244Z,61.03
2022-11-12T20:20:17.013Z,61.03
2022-11-12T20:23:03.031Z,60.76
2022-11-12T20:25:49.174Z,61.17
2022-11-12T20:28:36.421Z,61.46
2022-11-12T20:31:22.873Z,61.55
2022-11-12T20:34:09.023Z,61.35
2022-11-12T20:36:55.192Z,61.10
2022-11-12T20:39:41.404Z,61.17
2022-11-12T20:42:27.053Z,61.23
2022-11-12T20:45:13.169Z,61.14
2022-11-12T20:47:58.837Z,61.25
2022-11-12T20:51:09.395Z,61.31
2022-11-12T20:53:55.925Z,61.22
2022-11-12T20:56:44.649Z,61.40
2022-11-12T20:59:30.730Z,61.30
2022-11-12T21:02:16.671Z,61.32
2022-11-12T21:05:13.544Z,60.95
2022-11-12T21:08:07.096Z,61.31
2022-11-12T21:10:53.497Z,61.25
2022-11-12T21:13:40.057Z,61.19
2022-11-12T21:16:26.125Z,61.06
2022-11-12T21:19:12.003Z,61.14
2022-11-12T21:21:58.021Z,61.08
2022-11-12T21:24:44.371Z,60.85
2022-11-12T21:27:30.016Z,61.35
2022-11-12T21:30:16.120Z,61.28
2022-11-12T21:33:02.058Z,61.17
2022-11-12T21:35:53.991Z,61.03
2022-11-12T21:38:39.812Z,61.06
2022-11-12T21:41:28.465Z,60.87
2022-11-12T21:44:19.843Z,60.81
2022-11-12T21:47:06.174Z,60.82
2022-11-12T21:49:55.729Z,60.68
2022-11-12T21:52:41.856Z,60.72
2022-11-12T21:55:27.931Z,60.50
2022-11-12T21:58:13.925Z,60.59
2022-11-12T22:01:17.159Z,60.35
2022-11-12T22:04:08.031Z,60.53
2022-11-12T22:06:54.092Z,60.47
2022-11-12T22:09:39.884Z,60.46
2022-11-12T22:12:25.972Z,60.40
2022-11-12T22:15:11.861Z,60.46
2022-11-12T22:18:04.090Z,60.36
2022-11-12T22:21:07.402Z,60.34
2022-11-12T22:23:53.892Z,60.28
2022-11-12T22:26:39.789Z,60.48
2022-11-12T22:29:25.519Z,60.44
2022-11-12T22:32:11.428Z,60.42
2022-11-12T22:34:57.287Z,60.37
2022-11-12T22:37:43.131Z,60.47
2022-11-12T22:40:29.052Z,60.29
2022-11-12T22:43:14.793Z,60.28
2022-11-12T22:46:10.023Z,60.00
2022-11-12T22:48:56.508Z,60.08
2022-11-12T22:51:42.499Z,59.23
2022-11-12T22:54:30.581Z,59.99
2022-11-12T22:57:16.274Z,59.68
2022-11-12T23:00:02.169Z,59.28
2022-11-12T23:02:48.088Z,59.11
2022-11-12T23:05:37.029Z,59.00
2022-11-12T23:08:23.139Z,59.37
2022-11-12T23:11:11.395Z,59.96
2022-11-12T23:13:58.035Z,60.48
2022-11-12T23:16:43.921Z,60.48
2022-11-12T23:19:29.620Z,60.40
2022-11-12T23:22:15.520Z,60.37
2022-11-12T23:25:01.389Z,60.34
2022-11-12T23:27:47.097Z,60.49
2022-11-12T23:30:32.974Z,60.32
2022-11-12T23:33:18.714Z,60.54
2022-11-12T23:36:06.033Z,60.56
2022-11-12T23:38:52.698Z,60.28
2022-11-12T23:41:38.328Z,59.94
2022-11-12T23:44:24.288Z,59.91
2022-11-12T23:47:10.246Z,60.16
2022-11-12T23:49:55.976Z,59.39
2022-11-12T23:52:41.803Z,58.45
2022-11-12T23:55:31.201Z,59.38
2022-11-12T23:58:19.408Z,59.47
